This is the latest recevied weather packets stored in our database for station/object W3JBS-2. If no packets are shown the sender has not sent any weather packets the latest 10 day(s).
| Time | Temp. | Humidity | Pressure | Rain* | Wind** | Luminosity | Snow |
|---|---|---|---|---|---|---|---|
| 1777843319 | 15° C | 35% | 1012.2 hPa | 0 mm | - | - | - |
| 1777842419 | 15° C | 34% | 1012.2 hPa | 0 mm | - | - | - |
| 1777841519 | 15.56° C | 35% | 1012.2 hPa | 0 mm | - | - | - |
| 1777840619 | 15° C | 37% | 1012.5 hPa | 0 mm | - | - | - |
| 1777839719 | 14.44° C | 37% | 1012.6 hPa | 0 mm | - | - | - |
| 1777838819 | 14.44° C | 37% | 1012.7 hPa | 0 mm | - | - | - |
| 1777837920 | 14.44° C | 38% | 1012.8 hPa | 0 mm | - | - | - |
| 1777837020 | 13.89° C | 37% | 1012.8 hPa | 0 mm | - | - | - |
| 1777836119 | 13.33° C | 38% | 1013 hPa | 0 mm | - | - | - |
| 1777835219 | 13.33° C | 37% | 1013.1 hPa | 0 mm | - | - | - |
| 1777834319 | 13.89° C | 37% | 1013.1 hPa | 0 mm | - | - | - |
| 1777833419 | 13.33° C | 38% | 1013.3 hPa | 0 mm | - | - | - |
| 1777832519 | 13.89° C | 39% | 1013.4 hPa | 0 mm | - | - | - |
| 1777831620 | 13.33° C | 42% | 1013.5 hPa | 0 mm | - | - | - |
| 1777830720 | 13.89° C | 41% | 1013.5 hPa | 0 mm | - | - | - |
| 1777829820 | 12.78° C | 39% | 1013.6 hPa | 0 mm | - | - | - |
| 1777828919 | 12.22° C | 41% | 1013.7 hPa | 0 mm | - | - | - |
| 1777828019 | 12.22° C | 40% | 1013.8 hPa | 0 mm | - | - | - |
| 1777827119 | 12.22° C | 41% | 1013.8 hPa | 0 mm | - | - | - |
| 1777826219 | 11.67° C | 42% | 1014 hPa | 0 mm | - | - | - |
| 1777825319 | 11.11° C | 47% | 1014.2 hPa | 0 mm | - | - | - |
| 1777824419 | 11.11° C | 45% | 1014.2 hPa | 0 mm | - | - | - |
| 1777823518 | 11.11° C | 45% | 1014.1 hPa | 0 mm | - | - | - |
| 1777822619 | 10.56° C | 46% | 1014.4 hPa | 0 mm | - | - | - |
| 1777821719 | 10° C | 49% | 1014.4 hPa | 0 mm | - | - | - |
* Rain latest hour (hover to see other rain measurements)
** Current wind speed in m/s (hover to see current wind gust speed)